WetterOnline ( https://www.wetteronline.de )

Wetter aktuell Bochum

Aktuelles Wetter: Essen (161m)

6-stündlich | Neueste Meldungen
Ortszeit Temperatur Wetter
Fr, 21.06. 8:00 17.4° C bedeckt
Fr, 21.06. 2:00 16.8° C bewölkt
Do, 20.06. 20:00 18.4° C bewölkt
Do, 20.06. 14:00 19.1° C bedeckt
Do, 20.06. 8:00 14.0° C wolkenlos
Do, 20.06. 2:00 14.0° C leicht bewölkt
Mi, 19.06. 20:00 19.3° C wolkenlos
Mi, 19.06. 14:00 19.3° C leicht bewölkt
Ortszeit Temperatur Wetter
Fr, 21.06. 10:30 18.3° C bedeckt
Fr, 21.06. 10:20 18.3° C bedeckt
Fr, 21.06. 10:10 18.2° C bedeckt
Fr, 21.06. 10:00 17.9° C bedeckt
Fr, 21.06. 9:50 17.9° C Dunst
Fr, 21.06. 9:40 17.9° C Dunst
Fr, 21.06. 9:30 17.7° C bewölkt
Fr, 21.06. 9:00 17.7° C Nebel
Fr, 21.06. 8:30 17.2° C Nebel
Fr, 21.06. 8:00 17.4° C bedeckt
Fr, 21.06. 7:30 17.1° C bedeckt
Ortszeit Relative Feuchte Sichtweite
Fr, 21.06. 8:00 95% 2.6 km
Fr, 21.06. 2:00 82% 30 km
Do, 20.06. 20:00 77% 35 km
Do, 20.06. 14:00 63% >70 km
Do, 20.06. 8:00 79% 40 km
Do, 20.06. 2:00 78% 45 km
Mi, 19.06. 20:00 52% 45 km
Mi, 19.06. 14:00 66% 55 km
Ortszeit Relative Feuchte Sichtweite
Fr, 21.06. 10:30 88% 8 km
Fr, 21.06. 10:20 88% -
Fr, 21.06. 10:10 89% -
Fr, 21.06. 10:00 90% 7 km
Fr, 21.06. 9:50 90% -
Fr, 21.06. 9:40 92% -
Fr, 21.06. 9:30 93% 4.2 km
Fr, 21.06. 9:00 94% 4.5 km
Fr, 21.06. 8:30 96% 3.1 km
Fr, 21.06. 8:00 95% 2.6 km
Fr, 21.06. 7:30 93% 9 km
Ortszeit Niederschlagsmenge Niederschlagsart
Fr, 21.06. 8:00 0.1 l/m2 in 12 Std. Regen
Fr, 21.06. 2:00 0.0 l/m2 in 6 Std. -
Do, 20.06. 20:00 2 l/m2 in 12 Std. Regen
Do, 20.06. 14:00 0.0 l/m2 in 6 Std. -
Do, 20.06. 8:00 0.0 l/m2 in 12 Std. -
Do, 20.06. 2:00 0.0 l/m2 in 6 Std. -
Mi, 19.06. 20:00 0.0 l/m2 in 12 Std. -
Mi, 19.06. 14:00 0.1 l/m2 in 6 Std. Niederschlag
Ortszeit Niederschlagsmenge Niederschlagsart
Fr, 21.06. 10:30 0.0 l/m2 in 30 Min -
Fr, 21.06. 10:20 keine Meldung -
Fr, 21.06. 10:10 keine Meldung -
Fr, 21.06. 10:00 0.0 l/m2 in 1 Std. -
Fr, 21.06. 9:50 keine Meldung -
Fr, 21.06. 9:40 keine Meldung -
Fr, 21.06. 9:30 0.0 l/m2 in 30 Min -
Fr, 21.06. 9:00 <0.05 l/m2 in 1 Std. -
Fr, 21.06. 8:30 0.0 l/m2 in 30 Min -
Fr, 21.06. 8:00 <0.05 l/m2 in 1 Std. Regen
Fr, 21.06. 7:30 <0.05 l/m2 in 30 Min Schnee
Ortszeit Stärke Spitze Richtung
km/h Bft. km/h Grad Sektor
Fr, 21.06. 8:00 4 1 18 220° SW
Fr, 21.06. 2:00 9 2 19 30° NO
Do, 20.06. 20:00 14 3 25 20° N
Do, 20.06. 14:00 11 2 25 50° NO
Do, 20.06. 8:00 11 2 22 80° O
Do, 20.06. 2:00 9 2 19 50° NO
Mi, 19.06. 20:00 7 2 25 360° N
Mi, 19.06. 14:00 11 2 25 20° N
Ortszeit Stärke Spitze Richtung
km/h Bft. km/h Grad Sektor
Fr, 21.06. 10:30 9 2 22 200° S
Fr, 21.06. 10:20 9 2 - 200° S
Fr, 21.06. 10:10 9 2 - 190° S
Fr, 21.06. 10:00 9 2 17 220° SW
Fr, 21.06. 9:50 9 2 - 220° SW
Fr, 21.06. 9:40 6 1 - 170° S
Fr, 21.06. 9:30 7 2 11 200° S
Fr, 21.06. 9:00 7 2 11 220° SW
Fr, 21.06. 8:30 7 2 11 250° W
Fr, 21.06. 8:00 4 1 7 220° SW
Fr, 21.06. 7:30 2 1 6 210° SW
Ortszeit Untergrenze Bedeckung Gattung
total tief tief mittel hoch
Fr, 21.06. 8:00 60 m 8/8 8/8 - - -
Fr, 21.06. 2:00 390 m 7/8 7/8 - - -
Do, 20.06. 20:00 1050 m 8/8 6/8 - - -
Do, 20.06. 14:00 1800 m 8/8 8/8 - - -
Do, 20.06. 8:00 - 0/8 0/8 - - -
Do, 20.06. 2:00 7200 m 4/8 0/8 - - -
Mi, 19.06. 20:00 - 0/8 0/8 - - -
Mi, 19.06. 14:00 750 m 3/8 3/8 - - -
Ortszeit Bedeckungsgrad in Achtel und Wolkenuntergrenze
Fr, 21.06. 10:30 5(210m) 8(420m)
Fr, 21.06. 10:20 5(210m) 8(420m)
Fr, 21.06. 10:10 8
Fr, 21.06. 10:00 7(180m) 8(450m)
Fr, 21.06. 9:50 7(180m) 8(450m)
Fr, 21.06. 9:40 8
Fr, 21.06. 9:30 7(90m)
Fr, 21.06. 9:00 7(60m)
Fr, 21.06. 8:30 8(30m)
Fr, 21.06. 8:00 8(60m)
Fr, 21.06. 7:30 7(120m) 7(420m) 8(1500m)
Ortszeit Luftdruck NN (hPa) Tendenz (hPa in 3 Std.)
Fr, 21.06. 8:00 1012 - 0,8
Fr, 21.06. 2:00 1015 - 0,7
Do, 20.06. 20:00 1016 - 1,5
Do, 20.06. 14:00 1019 - 1,6
Do, 20.06. 8:00 1021 - 1,3
Do, 20.06. 2:00 1022 + 0,2
Mi, 19.06. 20:00 1020 + 0,5
Mi, 19.06. 14:00 1019 + 1,5
Ortszeit Luftdruck NN (hPa) Tendenz (hPa in 3 Std.)
Fr, 21.06. 10:30 1013 + 0,2
Fr, 21.06. 10:20 1013 keine Meldung
Fr, 21.06. 10:10 1013 keine Meldung
Fr, 21.06. 10:00 1013 0,0
Fr, 21.06. 9:50 1013 keine Meldung
Fr, 21.06. 9:40 1012 keine Meldung
Fr, 21.06. 9:30 1013 + 0,2
Fr, 21.06. 9:00 1013 + 0,3
Fr, 21.06. 8:30 1013 + 0,1
Fr, 21.06. 8:00 1012 - 0,8
Fr, 21.06. 7:30 1013 - 1,0
Ortszeit Schneehöhe (cm)
Fr, 21.06. 8:00 0
Fr, 21.06. 2:00 0
Do, 20.06. 20:00 0
Do, 20.06. 14:00 0
Do, 20.06. 8:00 0
Do, 20.06. 2:00 0
Mi, 19.06. 20:00 0
Mi, 19.06. 14:00 0
Ortszeit Schneehöhe (cm)
Fr, 21.06. 10:30 0
Fr, 21.06. 10:20 0
Fr, 21.06. 10:10 -
Fr, 21.06. 10:00 0
Fr, 21.06. 9:50 0
Fr, 21.06. 9:40 -
Fr, 21.06. 9:30 0
Fr, 21.06. 9:00 0
Fr, 21.06. 8:30 0
Fr, 21.06. 8:00 0
Fr, 21.06. 7:30 0
Link zu dieser Seite / Seite empfehlen

Das Wetter in ...